TimeEDT,TemperatureF,Dew PointF,Humidity,Sea Level PressureIn,VisibilityMPH,Wind Direction,Wind SpeedMPH,Gust SpeedMPH,PrecipitationIn,Events,Conditions,WindDirDegrees,DateUTC
12:15 AM,43.7,41.4,91,29.91,10.0,Calm,Calm,-,N/A,,Overcast,0,2013-03-24 04:15:00
12:35 AM,43.7,41.4,91,29.91,10.0,Calm,Calm,-,N/A,,Mostly Cloudy,0,2013-03-24 04:35:00
12:55 AM,43.2,41.2,93,29.90,10.0,Calm,Calm,-,N/A,,Scattered Clouds,0,2013-03-24 04:55:00
1:15 AM,42.8,41.2,94,29.90,10.0,Calm,Calm,-,N/A,,Mostly Cloudy,0,2013-03-24 05:15:00
1:35 AM,42.8,41.0,93,29.91,10.0,WNW,3.5,-,N/A,,Overcast,300,2013-03-24 05:35:00
1:55 AM,43.2,41.4,93,29.93,10.0,Calm,Calm,-,N/A,,Overcast,0,2013-03-24 05:55:00
2:15 AM,43.2,41.4,93,29.92,10.0,Calm,Calm,-,N/A,Rain,Rain,0,2013-03-24 06:15:00
2:35 AM,43.3,42.1,95,29.89,7.0,Calm,Calm,-,0.01,Rain,Light Rain,0,2013-03-24 06:35:00
2:55 AM,43.2,42.4,97,29.87,5.0,NNE,5.8,-,0.03,Rain,Light Rain,30,2013-03-24 06:55:00
3:15 AM,43.0,42.3,97,29.86,7.0,NNE,3.5,-,N/A,,Light Drizzle,20,2013-03-24 07:15:00
3:35 AM,43.7,42.4,95,29.85,7.0,Calm,Calm,-,N/A,Rain,Light Rain,0,2013-03-24 07:35:00
3:55 AM,43.2,42.4,97,29.84,5.0,Calm,Calm,-,0.01,Rain,Light Rain,0,2013-03-24 07:55:00
4:15 AM,43.3,42.8,98,29.83,5.0,North,3.5,-,0.01,Rain,Light Rain,350,2013-03-24 08:15:00
4:35 AM,43.3,42.8,98,29.82,3.0,NE,3.5,-,0.04,Rain,Rain,50,2013-03-24 08:35:00
4:55 AM,43.2,42.6,98,29.81,4.0,NE,4.6,-,0.07,Rain,Rain,50,2013-03-24 08:55:00
5:15 AM,43.7,42.8,97,29.82,4.0,ENE,3.5,-,0.02,Rain,Rain,70,2013-03-24 09:15:00
5:35 AM,43.7,42.8,97,29.80,3.0,ENE,3.5,-,0.05,Rain,Rain,60,2013-03-24 09:35:00
5:55 AM,43.5,42.8,97,29.77,2.5,NE,8.1,-,0.13,Rain,Rain,50,2013-03-24 09:55:00
6:15 AM,43.7,42.8,97,29.76,3.0,NE,5.8,-,0.04,Rain,Rain,40,2013-03-24 10:15:00
6:35 AM,43.7,42.8,97,29.73,4.0,NE,6.9,-,0.05,Rain,Light Rain,50,2013-03-24 10:35:00
6:55 AM,43.7,42.3,95,29.72,7.0,NE,5.8,-,0.05,Rain,Light Rain,50,2013-03-24 10:55:00
7:15 AM,43.5,41.4,92,29.71,10.0,ENE,4.6,-,0.01,,Overcast,70,2013-03-24 11:15:00
7:35 AM,43.7,40.6,89,29.72,10.0,NE,6.9,-,0.01,Rain,Light Rain,40,2013-03-24 11:35:00
7:55 AM,43.3,41.4,93,29.75,5.0,NNW,5.8,-,0.03,Rain,Rain,340,2013-03-24 11:55:00
8:15 AM,42.8,41.5,95,29.82,2.0,NNW,5.8,-,0.09,Rain,Heavy Rain,340,2013-03-24 12:15:00
8:35 AM,42.4,41.2,95,29.80,2.0,NNE,6.9,-,0.19,Rain,Rain,30,2013-03-24 12:35:00
8:55 AM,42.3,41.4,97,29.76,4.0,ENE,8.1,-,0.22,Rain,Light Rain,60,2013-03-24 12:55:00
9:15 AM,42.4,41.5,97,29.74,5.0,ENE,5.8,-,N/A,,Light Drizzle,70,2013-03-24 13:15:00
9:35 AM,42.6,40.6,93,29.74,10.0,NNE,8.1,-,N/A,,Overcast,30,2013-03-24 13:35:00
9:55 AM,43.0,38.7,85,29.74,10.0,NNE,6.9,-,N/A,,Overcast,30,2013-03-24 13:55:00
10:15 AM,42.8,40.1,90,29.74,4.0,North,6.9,-,0.01,Rain,Rain,360,2013-03-24 14:15:00
10:35 AM,42.3,40.8,95,29.73,4.0,NNE,6.9,-,0.04,Rain,Heavy Rain,20,2013-03-24 14:35:00
10:55 AM,42.1,40.5,94,29.72,3.0,North,9.2,-,0.05,Rain,Rain,10,2013-03-24 14:55:00
11:15 AM,42.1,40.5,94,29.70,3.0,North,11.5,-,0.01,,Heavy Drizzle,10,2013-03-24 15:15:00
11:35 AM,41.9,39.9,93,29.68,3.0,NNE,16.1,21.9,0.01,,Drizzle,20,2013-03-24 15:35:00
11:55 AM,41.9,39.7,92,29.70,3.0,North,11.5,20.7,0.02,Rain,Rain,10,2013-03-24 15:55:00
12:15 PM,41.5,39.2,91,29.70,3.0,NE,12.7,19.6,0.01,Rain,Rain,40,2013-03-24 16:15:00
12:35 PM,41.4,39.2,92,29.68,3.0,NNE,11.5,19.6,0.03,Rain,Rain,20,2013-03-24 16:35:00
12:55 PM,41.5,39.4,92,29.67,5.0,NNE,12.7,19.6,0.04,,Light Drizzle,20,2013-03-24 16:55:00
1:15 PM,41.7,39.0,90,29.67,5.0,NNE,9.2,-,N/A,,Light Drizzle,30,2013-03-24 17:15:00
1:35 PM,41.4,39.2,92,29.66,2.5,NNE,11.5,-,N/A,,Drizzle,20,2013-03-24 17:35:00
1:55 PM,41.4,39.7,94,29.66,3.0,North,5.8,-,N/A,,Light Drizzle,10,2013-03-24 17:55:00
2:15 PM,41.4,39.4,93,29.65,4.0,NNE,8.1,-,N/A,,Overcast,20,2013-03-24 18:15:00
2:35 PM,41.2,39.4,93,29.64,4.0,North,4.6,-,N/A,,Overcast,10,2013-03-24 18:35:00
2:55 PM,41.4,39.7,94,29.63,4.0,NNE,4.6,-,N/A,,Overcast,20,2013-03-24 18:55:00
3:15 PM,41.4,39.2,92,29.63,7.0,NNE,6.9,-,N/A,,Overcast,30,2013-03-24 19:15:00
3:35 PM,41.7,38.7,89,29.62,7.0,NNE,4.6,-,N/A,,Overcast,30,2013-03-24 19:35:00
3:55 PM,42.1,38.5,87,29.60,10.0,NE,8.1,-,N/A,,Overcast,40,2013-03-24 19:55:00
4:15 PM,42.6,38.8,86,29.57,10.0,ENE,4.6,-,N/A,,Overcast,60,2013-03-24 20:15:00
4:35 PM,42.8,38.3,84,29.57,10.0,NE,3.5,-,N/A,,Overcast,50,2013-03-24 20:35:00
4:55 PM,42.8,38.3,84,29.58,10.0,Calm,Calm,-,N/A,,Overcast,0,2013-03-24 20:55:00
5:15 PM,42.8,37.6,82,29.58,10.0,Calm,Calm,-,N/A,,Overcast,0,2013-03-24 21:15:00
5:35 PM,42.3,39.4,90,29.59,10.0,South,3.5,-,N/A,,Overcast,190,2013-03-24 21:35:00
5:55 PM,41.9,39.4,91,29.58,10.0,Calm,Calm,-,N/A,,Overcast,0,2013-03-24 21:55:00
6:15 PM,41.9,39.2,90,29.58,7.0,SSE,3.5,-,N/A,,Overcast,160,2013-03-24 22:15:00
6:35 PM,41.5,38.3,88,29.58,10.0,SE,4.6,-,N/A,,Overcast,140,2013-03-24 22:35:00
6:55 PM,41.0,38.3,90,29.58,10.0,SE,3.5,-,N/A,,Overcast,140,2013-03-24 22:55:00
7:15 PM,40.3,38.5,93,29.59,5.0,SE,3.5,-,N/A,,Overcast,130,2013-03-24 23:15:00
7:35 PM,40.1,38.7,95,29.60,3.0,SSE,4.6,-,N/A,,Overcast,160,2013-03-24 23:35:00
7:55 PM,39.6,39.2,99,29.59,2.5,SE,4.6,-,N/A,,Overcast,130,2013-03-24 23:55:00
8:15 PM,39.2,38.8,99,29.60,3.0,ESE,3.5,-,N/A,,Overcast,120,2013-03-25 00:15:00
8:35 PM,39.2,38.8,99,29.59,3.0,SE,4.6,-,N/A,,Overcast,140,2013-03-25 00:35:00
8:55 PM,39.0,38.5,98,29.59,7.0,SE,4.6,-,N/A,,Overcast,130,2013-03-25 00:55:00
9:15 PM,38.7,37.9,97,29.59,7.0,SE,5.8,-,N/A,,Light Drizzle,140,2013-03-25 01:15:00
9:35 PM,38.7,37.9,97,29.60,7.0,SSE,4.6,-,N/A,Rain,Light Rain,150,2013-03-25 01:35:00
9:55 PM,38.5,37.8,97,29.60,5.0,SE,4.6,-,N/A,,Drizzle,140,2013-03-25 01:55:00
10:15 PM,38.5,37.9,98,29.60,5.0,Calm,Calm,-,N/A,,Overcast,0,2013-03-25 02:15:00
10:35 PM,38.3,37.8,98,29.60,5.0,SE,3.5,-,N/A,,Overcast,130,2013-03-25 02:35:00
10:55 PM,38.3,37.8,98,29.59,5.0,SE,4.6,-,N/A,,Overcast,140,2013-03-25 02:55:00
11:15 PM,38.5,37.9,98,29.59,4.0,ESE,3.5,-,N/A,,Overcast,120,2013-03-25 03:15:00
11:35 PM,38.3,37.4,97,29.60,7.0,Calm,Calm,-,N/A,,Overcast,0,2013-03-25 03:35:00
11:55 PM,38.3,37.6,97,29.59,3.0,Calm,Calm,-,N/A,,Drizzle,0,2013-03-25 03:55:00